sensor_id;sensor_type;location;lat;lon;timestamp;P1;durP1;ratioP1;P2;durP2;ratioP2
5742;SDS011;2896;53.500;10.020;2023-10-31T00:01:37;8.67;;;6.90;;
5742;SDS011;2896;53.500;10.020;2023-10-31T00:04:04;11.23;;;6.57;;
5742;SDS011;2896;53.500;10.020;2023-10-31T00:06:32;10.73;;;7.20;;
5742;SDS011;2896;53.500;10.020;2023-10-31T00:09:00;8.07;;;6.17;;
5742;SDS011;2896;53.500;10.020;2023-10-31T00:11:27;14.40;;;7.20;;
5742;SDS011;2896;53.500;10.020;2023-10-31T00:13:53;9.03;;;5.40;;
5742;SDS011;2896;53.500;10.020;2023-10-31T00:16:20;5.70;;;5.20;;
5742;SDS011;2896;53.500;10.020;2023-10-31T00:18:47;15.03;;;7.50;;
5742;SDS011;2896;53.500;10.020;2023-10-31T00:21:13;7.00;;;6.40;;
5742;SDS011;2896;53.500;10.020;2023-10-31T00:23:45;10.00;;;6.97;;
5742;SDS011;2896;53.500;10.020;2023-10-31T00:26:12;7.23;;;5.70;;
5742;SDS011;2896;53.500;10.020;2023-10-31T00:28:39;9.47;;;6.40;;
5742;SDS011;2896;53.500;10.020;2023-10-31T00:31:05;10.83;;;7.50;;
5742;SDS011;2896;53.500;10.020;2023-10-31T00:33:33;11.37;;;7.03;;
5742;SDS011;2896;53.500;10.020;2023-10-31T00:36:00;13.73;;;8.03;;
5742;SDS011;2896;53.500;10.020;2023-10-31T00:38:27;8.97;;;8.07;;
5742;SDS011;2896;53.500;10.020;2023-10-31T00:40:55;10.27;;;7.53;;
5742;SDS011;2896;53.500;10.020;2023-10-31T00:43:22;9.57;;;7.90;;
5742;SDS011;2896;53.500;10.020;2023-10-31T00:45:49;8.50;;;6.73;;
5742;SDS011;2896;53.500;10.020;2023-10-31T00:48:16;12.23;;;8.87;;
5742;SDS011;2896;53.500;10.020;2023-10-31T00:50:43;10.00;;;7.40;;
5742;SDS011;2896;53.500;10.020;2023-10-31T00:53:09;7.23;;;6.13;;
5742;SDS011;2896;53.500;10.020;2023-10-31T00:55:38;9.83;;;7.60;;
5742;SDS011;2896;53.500;10.020;2023-10-31T00:58:06;13.53;;;8.60;;
5742;SDS011;2896;53.500;10.020;2023-10-31T01:00:33;14.93;;;9.13;;
5742;SDS011;2896;53.500;10.020;2023-10-31T01:03:02;9.17;;;8.20;;
5742;SDS011;2896;53.500;10.020;2023-10-31T01:05:29;12.83;;;7.90;;
5742;SDS011;2896;53.500;10.020;2023-10-31T01:07:55;10.40;;;8.47;;
5742;SDS011;2896;53.500;10.020;2023-10-31T01:10:22;19.73;;;9.83;;
5742;SDS011;2896;53.500;10.020;2023-10-31T01:12:49;8.33;;;7.47;;
5742;SDS011;2896;53.500;10.020;2023-10-31T01:15:17;8.30;;;7.07;;
5742;SDS011;2896;53.500;10.020;2023-10-31T01:17:43;10.80;;;7.80;;
5742;SDS011;2896;53.500;10.020;2023-10-31T01:20:10;9.83;;;8.17;;
5742;SDS011;2896;53.500;10.020;2023-10-31T01:22:37;15.03;;;8.77;;
5742;SDS011;2896;53.500;10.020;2023-10-31T01:25:04;8.30;;;7.50;;
5742;SDS011;2896;53.500;10.020;2023-10-31T01:27:32;8.17;;;6.43;;
5742;SDS011;2896;53.500;10.020;2023-10-31T01:29:58;7.90;;;6.70;;
5742;SDS011;2896;53.500;10.020;2023-10-31T01:32:27;15.83;;;7.57;;
5742;SDS011;2896;53.500;10.020;2023-10-31T01:34:53;10.80;;;8.00;;
5742;SDS011;2896;53.500;10.020;2023-10-31T01:37:20;9.90;;;7.07;;
5742;SDS011;2896;53.500;10.020;2023-10-31T01:39:47;7.60;;;6.83;;
5742;SDS011;2896;53.500;10.020;2023-10-31T01:42:13;12.60;;;7.70;;
5742;SDS011;2896;53.500;10.020;2023-10-31T01:44:41;10.57;;;8.40;;
5742;SDS011;2896;53.500;10.020;2023-10-31T01:47:07;10.27;;;7.20;;
5742;SDS011;2896;53.500;10.020;2023-10-31T01:49:35;9.10;;;6.63;;
5742;SDS011;2896;53.500;10.020;2023-10-31T01:52:03;7.03;;;6.40;;
5742;SDS011;2896;53.500;10.020;2023-10-31T01:54:30;9.87;;;7.83;;
5742;SDS011;2896;53.500;10.020;2023-10-31T01:56:58;14.90;;;7.60;;
5742;SDS011;2896;53.500;10.020;2023-10-31T01:59:26;13.67;;;6.80;;
5742;SDS011;2896;53.500;10.020;2023-10-31T02:01:53;7.10;;;6.07;;
5742;SDS011;2896;53.500;10.020;2023-10-31T02:04:21;6.47;;;5.97;;
5742;SDS011;2896;53.500;10.020;2023-10-31T02:06:49;6.60;;;6.10;;
5742;SDS011;2896;53.500;10.020;2023-10-31T02:09:15;13.00;;;8.23;;
5742;SDS011;2896;53.500;10.020;2023-10-31T02:11:42;7.33;;;6.73;;
5742;SDS011;2896;53.500;10.020;2023-10-31T02:14:09;11.90;;;7.60;;
5742;SDS011;2896;53.500;10.020;2023-10-31T02:16:35;6.90;;;6.30;;
5742;SDS011;2896;53.500;10.020;2023-10-31T02:19:02;8.40;;;7.60;;
5742;SDS011;2896;53.500;10.020;2023-10-31T02:21:29;7.73;;;6.87;;
5742;SDS011;2896;53.500;10.020;2023-10-31T02:23:59;7.20;;;6.27;;
5742;SDS011;2896;53.500;10.020;2023-10-31T02:26:28;8.03;;;7.23;;
5742;SDS011;2896;53.500;10.020;2023-10-31T02:28:55;8.80;;;7.07;;
5742;SDS011;2896;53.500;10.020;2023-10-31T02:31:21;8.10;;;7.30;;
5742;SDS011;2896;53.500;10.020;2023-10-31T02:33:48;11.97;;;7.90;;
5742;SDS011;2896;53.500;10.020;2023-10-31T02:36:15;7.70;;;6.40;;
5742;SDS011;2896;53.500;10.020;2023-10-31T02:38:41;6.73;;;6.03;;
5742;SDS011;2896;53.500;10.020;2023-10-31T02:41:09;12.00;;;8.40;;
5742;SDS011;2896;53.500;10.020;2023-10-31T02:43:36;15.93;;;8.60;;
5742;SDS011;2896;53.500;10.020;2023-10-31T02:46:03;11.40;;;9.30;;
5742;SDS011;2896;53.500;10.020;2023-10-31T02:48:30;9.80;;;6.77;;
5742;SDS011;2896;53.500;10.020;2023-10-31T02:51:03;7.10;;;6.07;;
5742;SDS011;2896;53.500;10.020;2023-10-31T02:53:29;7.63;;;6.93;;
5742;SDS011;2896;53.500;10.020;2023-10-31T02:55:56;12.20;;;7.50;;
5742;SDS011;2896;53.500;10.020;2023-10-31T02:58:24;9.67;;;8.33;;
5742;SDS011;2896;53.500;10.020;2023-10-31T03:00:51;7.50;;;6.70;;
5742;SDS011;2896;53.500;10.020;2023-10-31T03:03:17;10.17;;;6.40;;
5742;SDS011;2896;53.500;10.020;2023-10-31T03:05:44;7.30;;;6.70;;
5742;SDS011;2896;53.500;10.020;2023-10-31T03:08:11;7.40;;;6.70;;
5742;SDS011;2896;53.500;10.020;2023-10-31T03:10:38;7.50;;;6.80;;
5742;SDS011;2896;53.500;10.020;2023-10-31T03:13:05;8.87;;;7.67;;
5742;SDS011;2896;53.500;10.020;2023-10-31T03:15:33;12.67;;;6.60;;
5742;SDS011;2896;53.500;10.020;2023-10-31T03:18:00;9.83;;;7.70;;
5742;SDS011;2896;53.500;10.020;2023-10-31T03:20:27;7.27;;;6.60;;
5742;SDS011;2896;53.500;10.020;2023-10-31T03:22:54;7.50;;;6.80;;
5742;SDS011;2896;53.500;10.020;2023-10-31T03:25:20;7.40;;;6.80;;
5742;SDS011;2896;53.500;10.020;2023-10-31T03:27:47;7.80;;;7.10;;
5742;SDS011;2896;53.500;10.020;2023-10-31T03:30:14;8.77;;;7.60;;
5742;SDS011;2896;53.500;10.020;2023-10-31T03:32:42;9.80;;;6.90;;
5742;SDS011;2896;53.500;10.020;2023-10-31T03:35:08;9.80;;;6.10;;
5742;SDS011;2896;53.500;10.020;2023-10-31T03:37:35;7.73;;;6.93;;
5742;SDS011;2896;53.500;10.020;2023-10-31T03:40:06;13.57;;;6.67;;
5742;SDS011;2896;53.500;10.020;2023-10-31T03:42:34;9.70;;;7.63;;
5742;SDS011;2896;53.500;10.020;2023-10-31T03:45:00;8.20;;;6.30;;
5742;SDS011;2896;53.500;10.020;2023-10-31T03:47:27;7.03;;;6.43;;
5742;SDS011;2896;53.500;10.020;2023-10-31T03:49:55;7.20;;;6.60;;
5742;SDS011;2896;53.500;10.020;2023-10-31T03:52:22;7.23;;;6.63;;
5742;SDS011;2896;53.500;10.020;2023-10-31T03:54:48;7.23;;;6.27;;
5742;SDS011;2896;53.500;10.020;2023-10-31T03:57:15;8.77;;;7.53;;
5742;SDS011;2896;53.500;10.020;2023-10-31T03:59:41;8.57;;;6.67;;
5742;SDS011;2896;53.500;10.020;2023-10-31T04:02:08;7.10;;;6.37;;
5742;SDS011;2896;53.500;10.020;2023-10-31T04:04:35;10.33;;;7.20;;
5742;SDS011;2896;53.500;10.020;2023-10-31T04:07:03;9.10;;;8.27;;
5742;SDS011;2896;53.500;10.020;2023-10-31T04:09:29;7.27;;;6.67;;
5742;SDS011;2896;53.500;10.020;2023-10-31T04:11:57;7.50;;;6.70;;
5742;SDS011;2896;53.500;10.020;2023-10-31T04:14:23;7.03;;;6.40;;
5742;SDS011;2896;53.500;10.020;2023-10-31T04:16:50;9.93;;;8.37;;
5742;SDS011;2896;53.500;10.020;2023-10-31T04:19:16;13.73;;;8.70;;
5742;SDS011;2896;53.500;10.020;2023-10-31T04:21:42;8.53;;;7.67;;
5742;SDS011;2896;53.500;10.020;2023-10-31T04:24:10;7.67;;;6.77;;
5742;SDS011;2896;53.500;10.020;2023-10-31T04:26:37;13.03;;;8.07;;
5742;SDS011;2896;53.500;10.020;2023-10-31T04:29:04;11.23;;;7.97;;
5742;SDS011;2896;53.500;10.020;2023-10-31T04:31:31;7.37;;;6.67;;
5742;SDS011;2896;53.500;10.020;2023-10-31T04:33:58;8.83;;;7.93;;
5742;SDS011;2896;53.500;10.020;2023-10-31T04:36:24;11.00;;;7.40;;
5742;SDS011;2896;53.500;10.020;2023-10-31T04:38:51;7.60;;;6.50;;
5742;SDS011;2896;53.500;10.020;2023-10-31T04:41:19;9.00;;;6.53;;
5742;SDS011;2896;53.500;10.020;2023-10-31T04:43:45;7.63;;;6.90;;
5742;SDS011;2896;53.500;10.020;2023-10-31T04:46:12;10.37;;;8.93;;
5742;SDS011;2896;53.500;10.020;2023-10-31T04:48:39;9.43;;;7.87;;
5742;SDS011;2896;53.500;10.020;2023-10-31T04:51:05;12.57;;;9.43;;
5742;SDS011;2896;53.500;10.020;2023-10-31T04:53:32;7.27;;;6.73;;
5742;SDS011;2896;53.500;10.020;2023-10-31T04:56:00;9.80;;;8.80;;
5742;SDS011;2896;53.500;10.020;2023-10-31T04:58:28;10.70;;;7.80;;
5742;SDS011;2896;53.500;10.020;2023-10-31T05:00:54;10.33;;;8.30;;
5742;SDS011;2896;53.500;10.020;2023-10-31T05:03:21;12.90;;;8.70;;
5742;SDS011;2896;53.500;10.020;2023-10-31T05:05:47;9.00;;;8.20;;
5742;SDS011;2896;53.500;10.020;2023-10-31T05:08:14;10.27;;;8.30;;
5742;SDS011;2896;53.500;10.020;2023-10-31T05:10:41;8.97;;;8.07;;
5742;SDS011;2896;53.500;10.020;2023-10-31T05:13:08;9.47;;;7.87;;
5742;SDS011;2896;53.500;10.020;2023-10-31T05:15:36;13.83;;;8.40;;
5742;SDS011;2896;53.500;10.020;2023-10-31T05:18:02;8.60;;;7.43;;
5742;SDS011;2896;53.500;10.020;2023-10-31T05:20:29;8.80;;;8.00;;
5742;SDS011;2896;53.500;10.020;2023-10-31T05:22:56;8.97;;;8.17;;
5742;SDS011;2896;53.500;10.020;2023-10-31T05:25:22;9.30;;;8.43;;
5742;SDS011;2896;53.500;10.020;2023-10-31T05:27:49;10.53;;;9.23;;
5742;SDS011;2896;53.500;10.020;2023-10-31T05:30:17;10.97;;;9.37;;
5742;SDS011;2896;53.500;10.020;2023-10-31T05:32:45;8.53;;;7.73;;
5742;SDS011;2896;53.500;10.020;2023-10-31T05:35:12;8.43;;;7.63;;
5742;SDS011;2896;53.500;10.020;2023-10-31T05:37:39;11.27;;;10.17;;
5742;SDS011;2896;53.500;10.020;2023-10-31T05:40:06;7.33;;;6.67;;
5742;SDS011;2896;53.500;10.020;2023-10-31T05:42:33;11.07;;;9.87;;
5742;SDS011;2896;53.500;10.020;2023-10-31T05:45:00;9.47;;;8.40;;
5742;SDS011;2896;53.500;10.020;2023-10-31T05:47:27;8.10;;;7.30;;
5742;SDS011;2896;53.500;10.020;2023-10-31T05:49:55;11.97;;;10.00;;
5742;SDS011;2896;53.500;10.020;2023-10-31T05:52:22;11.87;;;9.20;;
5742;SDS011;2896;53.500;10.020;2023-10-31T05:54:49;12.53;;;10.10;;
5742;SDS011;2896;53.500;10.020;2023-10-31T05:57:15;7.27;;;6.60;;
5742;SDS011;2896;53.500;10.020;2023-10-31T05:59:42;8.73;;;7.03;;
5742;SDS011;2896;53.500;10.020;2023-10-31T06:02:09;8.73;;;7.83;;
5742;SDS011;2896;53.500;10.020;2023-10-31T06:04:35;8.40;;;7.60;;
5742;SDS011;2896;53.500;10.020;2023-10-31T06:07:03;9.13;;;8.27;;
5742;SDS011;2896;53.500;10.020;2023-10-31T06:09:30;7.83;;;7.23;;
5742;SDS011;2896;53.500;10.020;2023-10-31T06:11:58;7.57;;;6.97;;
5742;SDS011;2896;53.500;10.020;2023-10-31T06:14:24;7.90;;;7.20;;
5742;SDS011;2896;53.500;10.020;2023-10-31T06:16:51;7.90;;;7.20;;
5742;SDS011;2896;53.500;10.020;2023-10-31T06:19:18;8.37;;;7.57;;
5742;SDS011;2896;53.500;10.020;2023-10-31T06:21:45;8.83;;;8.03;;
5742;SDS011;2896;53.500;10.020;2023-10-31T06:24:13;14.60;;;12.13;;
5742;SDS011;2896;53.500;10.020;2023-10-31T06:26:40;15.90;;;12.67;;
5742;SDS011;2896;53.500;10.020;2023-10-31T06:29:06;15.27;;;12.00;;
5742;SDS011;2896;53.500;10.020;2023-10-31T06:31:33;14.07;;;12.57;;
5742;SDS011;2896;53.500;10.020;2023-10-31T06:34:00;17.37;;;12.90;;
5742;SDS011;2896;53.500;10.020;2023-10-31T06:36:26;18.00;;;10.57;;
5742;SDS011;2896;53.500;10.020;2023-10-31T06:38:53;10.00;;;9.00;;
5742;SDS011;2896;53.500;10.020;2023-10-31T06:41:22;8.93;;;8.13;;
5742;SDS011;2896;53.500;10.020;2023-10-31T06:43:49;9.23;;;8.33;;
5742;SDS011;2896;53.500;10.020;2023-10-31T06:46:14;10.17;;;8.37;;
5742;SDS011;2896;53.500;10.020;2023-10-31T06:48:41;8.30;;;7.50;;
5742;SDS011;2896;53.500;10.020;2023-10-31T06:51:08;6.70;;;6.20;;
5742;SDS011;2896;53.500;10.020;2023-10-31T06:53:35;11.93;;;8.47;;
5742;SDS011;2896;53.500;10.020;2023-10-31T06:56:02;7.80;;;6.90;;
5742;SDS011;2896;53.500;10.020;2023-10-31T06:58:30;7.97;;;7.10;;
5742;SDS011;2896;53.500;10.020;2023-10-31T07:00:57;5.30;;;4.57;;
5742;SDS011;2896;53.500;10.020;2023-10-31T07:03:24;3.30;;;3.20;;
5742;SDS011;2896;53.500;10.020;2023-10-31T07:05:51;2.63;;;2.53;;
5742;SDS011;2896;53.500;10.020;2023-10-31T07:08:18;3.80;;;2.70;;
5742;SDS011;2896;53.500;10.020;2023-10-31T07:10:44;3.60;;;3.40;;
5742;SDS011;2896;53.500;10.020;2023-10-31T07:13:11;6.43;;;5.83;;
5742;SDS011;2896;53.500;10.020;2023-10-31T07:15:39;9.37;;;8.40;;
5742;SDS011;2896;53.500;10.020;2023-10-31T07:18:06;13.43;;;10.00;;
5742;SDS011;2896;53.500;10.020;2023-10-31T07:20:33;15.67;;;11.63;;
5742;SDS011;2896;53.500;10.020;2023-10-31T07:23:00;18.43;;;13.13;;
5742;SDS011;2896;53.500;10.020;2023-10-31T07:25:26;20.50;;;13.77;;
5742;SDS011;2896;53.500;10.020;2023-10-31T07:27:53;20.33;;;14.20;;
5742;SDS011;2896;53.500;10.020;2023-10-31T07:30:19;22.70;;;14.20;;
5742;SDS011;2896;53.500;10.020;2023-10-31T07:32:47;18.30;;;13.80;;
5742;SDS011;2896;53.500;10.020;2023-10-31T07:35:14;21.60;;;14.67;;
5742;SDS011;2896;53.500;10.020;2023-10-31T07:37:41;18.33;;;13.40;;
5742;SDS011;2896;53.500;10.020;2023-10-31T07:40:08;17.00;;;12.37;;
5742;SDS011;2896;53.500;10.020;2023-10-31T07:42:35;15.67;;;11.37;;
5742;SDS011;2896;53.500;10.020;2023-10-31T07:45:02;12.40;;;9.60;;
5742;SDS011;2896;53.500;10.020;2023-10-31T07:47:28;10.97;;;7.53;;
5742;SDS011;2896;53.500;10.020;2023-10-31T07:49:56;9.93;;;6.20;;
5742;SDS011;2896;53.500;10.020;2023-10-31T07:52:23;6.00;;;4.80;;
5742;SDS011;2896;53.500;10.020;2023-10-31T07:54:50;3.63;;;3.40;;
5742;SDS011;2896;53.500;10.020;2023-10-31T07:57:17;3.53;;;3.23;;
5742;SDS011;2896;53.500;10.020;2023-10-31T07:59:44;2.50;;;2.40;;
5742;SDS011;2896;53.500;10.020;2023-10-31T08:02:10;2.50;;;2.40;;
5742;SDS011;2896;53.500;10.020;2023-10-31T08:04:38;1.90;;;1.90;;
5742;SDS011;2896;53.500;10.020;2023-10-31T08:07:05;2.30;;;1.60;;
5742;SDS011;2896;53.500;10.020;2023-10-31T08:09:32;2.10;;;1.40;;
5742;SDS011;2896;53.500;10.020;2023-10-31T08:11:59;1.43;;;1.20;;
5742;SDS011;2896;53.500;10.020;2023-10-31T08:14:25;1.00;;;1.00;;
5742;SDS011;2896;53.500;10.020;2023-10-31T08:16:52;1.00;;;1.00;;
5742;SDS011;2896;53.500;10.020;2023-10-31T08:19:18;1.30;;;1.20;;
5742;SDS011;2896;53.500;10.020;2023-10-31T08:21:45;1.53;;;1.00;;
5742;SDS011;2896;53.500;10.020;2023-10-31T08:24:13;0.70;;;0.70;;
5742;SDS011;2896;53.500;10.020;2023-10-31T08:26:39;1.10;;;1.10;;
5742;SDS011;2896;53.500;10.020;2023-10-31T08:29:06;0.90;;;0.90;;
5742;SDS011;2896;53.500;10.020;2023-10-31T08:31:33;1.90;;;1.00;;
5742;SDS011;2896;53.500;10.020;2023-10-31T08:33:59;2.33;;;0.70;;
5742;SDS011;2896;53.500;10.020;2023-10-31T08:36:26;0.70;;;0.70;;
5742;SDS011;2896;53.500;10.020;2023-10-31T08:38:54;0.80;;;0.80;;
5742;SDS011;2896;53.500;10.020;2023-10-31T08:41:22;1.27;;;0.80;;
5742;SDS011;2896;53.500;10.020;2023-10-31T08:43:48;0.90;;;0.90;;
5742;SDS011;2896;53.500;10.020;2023-10-31T08:46:15;0.70;;;0.70;;
5742;SDS011;2896;53.500;10.020;2023-10-31T08:48:42;0.80;;;0.80;;
5742;SDS011;2896;53.500;10.020;2023-10-31T08:51:09;0.73;;;0.73;;
5742;SDS011;2896;53.500;10.020;2023-10-31T08:53:35;1.13;;;1.00;;
5742;SDS011;2896;53.500;10.020;2023-10-31T08:56:02;2.03;;;0.77;;
5742;SDS011;2896;53.500;10.020;2023-10-31T08:58:30;0.80;;;0.70;;
5742;SDS011;2896;53.500;10.020;2023-10-31T09:00:57;0.70;;;0.70;;
5742;SDS011;2896;53.500;10.020;2023-10-31T09:03:24;2.97;;;0.83;;
5742;SDS011;2896;53.500;10.020;2023-10-31T09:05:50;0.73;;;0.73;;
5742;SDS011;2896;53.500;10.020;2023-10-31T09:08:17;0.70;;;0.70;;
5742;SDS011;2896;53.500;10.020;2023-10-31T09:10:43;0.60;;;0.60;;
5742;SDS011;2896;53.500;10.020;2023-10-31T09:13:11;0.77;;;0.77;;
5742;SDS011;2896;53.500;10.020;2023-10-31T09:15:39;0.60;;;0.60;;
5742;SDS011;2896;53.500;10.020;2023-10-31T09:18:06;1.07;;;1.00;;
5742;SDS011;2896;53.500;10.020;2023-10-31T09:20:32;0.70;;;0.70;;
5742;SDS011;2896;53.500;10.020;2023-10-31T09:23:00;0.80;;;0.80;;
5742;SDS011;2896;53.500;10.020;2023-10-31T09:25:26;0.70;;;0.70;;
5742;SDS011;2896;53.500;10.020;2023-10-31T09:27:55;0.83;;;0.83;;
5742;SDS011;2896;53.500;10.020;2023-10-31T09:30:23;0.73;;;0.73;;
5742;SDS011;2896;53.500;10.020;2023-10-31T09:32:51;0.80;;;0.80;;
5742;SDS011;2896;53.500;10.020;2023-10-31T09:35:18;0.80;;;0.70;;
5742;SDS011;2896;53.500;10.020;2023-10-31T09:37:45;2.23;;;1.00;;
5742;SDS011;2896;53.500;10.020;2023-10-31T09:40:13;1.00;;;1.00;;
5742;SDS011;2896;53.500;10.020;2023-10-31T09:42:40;2.93;;;0.90;;
5742;SDS011;2896;53.500;10.020;2023-10-31T09:45:07;0.83;;;0.83;;
5742;SDS011;2896;53.500;10.020;2023-10-31T09:47:34;2.40;;;1.00;;
5742;SDS011;2896;53.500;10.020;2023-10-31T09:50:02;1.80;;;1.47;;
5742;SDS011;2896;53.500;10.020;2023-10-31T09:52:29;1.23;;;1.13;;
5742;SDS011;2896;53.500;10.020;2023-10-31T09:54:56;3.73;;;1.20;;
5742;SDS011;2896;53.500;10.020;2023-10-31T09:57:23;1.00;;;0.90;;
5742;SDS011;2896;53.500;10.020;2023-10-31T09:59:51;0.97;;;0.97;;
5742;SDS011;2896;53.500;10.020;2023-10-31T10:02:18;1.43;;;1.33;;
5742;SDS011;2896;53.500;10.020;2023-10-31T10:04:44;7.40;;;1.10;;
5742;SDS011;2896;53.500;10.020;2023-10-31T10:07:14;1.70;;;1.00;;
5742;SDS011;2896;53.500;10.020;2023-10-31T10:09:42;1.20;;;1.20;;
5742;SDS011;2896;53.500;10.020;2023-10-31T10:12:10;0.90;;;0.90;;
5742;SDS011;2896;53.500;10.020;2023-10-31T10:14:38;1.37;;;1.10;;
5742;SDS011;2896;53.500;10.020;2023-10-31T10:17:07;1.33;;;1.23;;
5742;SDS011;2896;53.500;10.020;2023-10-31T10:19:40;2.30;;;1.60;;
5742;SDS011;2896;53.500;10.020;2023-10-31T10:22:07;3.27;;;1.70;;
5742;SDS011;2896;53.500;10.020;2023-10-31T10:24:38;2.87;;;2.10;;
5742;SDS011;2896;53.500;10.020;2023-10-31T10:27:06;6.43;;;2.73;;
5742;SDS011;2896;53.500;10.020;2023-10-31T10:29:33;4.87;;;2.40;;
5742;SDS011;2896;53.500;10.020;2023-10-31T10:32:00;2.90;;;2.80;;
5742;SDS011;2896;53.500;10.020;2023-10-31T10:34:28;1.80;;;1.70;;
5742;SDS011;2896;53.500;10.020;2023-10-31T10:36:57;5.33;;;1.97;;
5742;SDS011;2896;53.500;10.020;2023-10-31T10:39:24;1.80;;;1.70;;
5742;SDS011;2896;53.500;10.020;2023-10-31T10:41:53;5.77;;;1.90;;
5742;SDS011;2896;53.500;10.020;2023-10-31T10:44:25;3.60;;;1.43;;
5742;SDS011;2896;53.500;10.020;2023-10-31T10:47:00;2.97;;;1.87;;
5742;SDS011;2896;53.500;10.020;2023-10-31T10:49:28;4.50;;;1.63;;
5742;SDS011;2896;53.500;10.020;2023-10-31T10:52:01;1.30;;;1.20;;
5742;SDS011;2896;53.500;10.020;2023-10-31T10:54:37;1.70;;;1.60;;
5742;SDS011;2896;53.500;10.020;2023-10-31T10:57:12;1.73;;;1.33;;
5742;SDS011;2896;53.500;10.020;2023-10-31T10:59:42;2.37;;;1.57;;
5742;SDS011;2896;53.500;10.020;2023-10-31T11:02:14;3.77;;;1.60;;
5742;SDS011;2896;53.500;10.020;2023-10-31T11:04:41;1.80;;;1.73;;
5742;SDS011;2896;53.500;10.020;2023-10-31T11:07:09;1.40;;;1.40;;
5742;SDS011;2896;53.500;10.020;2023-10-31T11:09:36;2.30;;;1.30;;
5742;SDS011;2896;53.500;10.020;2023-10-31T11:12:03;7.20;;;1.50;;
5742;SDS011;2896;53.500;10.020;2023-10-31T11:14:32;1.57;;;1.50;;
5742;SDS011;2896;53.500;10.020;2023-10-31T11:17:01;2.20;;;1.50;;
5742;SDS011;2896;53.500;10.020;2023-10-31T11:19:35;4.73;;;1.90;;
5742;SDS011;2896;53.500;10.020;2023-10-31T11:22:05;1.97;;;1.87;;
5742;SDS011;2896;53.500;10.020;2023-10-31T11:24:33;1.70;;;1.60;;
5742;SDS011;2896;53.500;10.020;2023-10-31T11:27:02;1.97;;;1.77;;
5742;SDS011;2896;53.500;10.020;2023-10-31T11:29:32;4.73;;;1.57;;
5742;SDS011;2896;53.500;10.020;2023-10-31T11:31:59;2.50;;;1.83;;
5742;SDS011;2896;53.500;10.020;2023-10-31T11:34:25;1.53;;;1.43;;
5742;SDS011;2896;53.500;10.020;2023-10-31T11:36:52;7.87;;;1.30;;
5742;SDS011;2896;53.500;10.020;2023-10-31T11:39:19;1.53;;;1.53;;
5742;SDS011;2896;53.500;10.020;2023-10-31T11:41:53;6.90;;;1.77;;
5742;SDS011;2896;53.500;10.020;2023-10-31T11:44:22;1.30;;;1.27;;
5742;SDS011;2896;53.500;10.020;2023-10-31T11:46:52;2.90;;;1.50;;
5742;SDS011;2896;53.500;10.020;2023-10-31T11:52:16;1.40;;;1.40;;
5742;SDS011;2896;53.500;10.020;2023-10-31T11:54:43;2.53;;;1.40;;
5742;SDS011;2896;53.500;10.020;2023-10-31T11:57:10;1.53;;;1.43;;
5742;SDS011;2896;53.500;10.020;2023-10-31T11:59:36;2.50;;;2.30;;
5742;SDS011;2896;53.500;10.020;2023-10-31T12:02:13;1.50;;;1.40;;
5742;SDS011;2896;53.500;10.020;2023-10-31T12:04:40;1.43;;;1.33;;
5742;SDS011;2896;53.500;10.020;2023-10-31T12:07:06;1.37;;;1.27;;
5742;SDS011;2896;53.500;10.020;2023-10-31T12:09:42;1.67;;;1.57;;
5742;SDS011;2896;53.500;10.020;2023-10-31T12:12:11;2.20;;;1.30;;
5742;SDS011;2896;53.500;10.020;2023-10-31T12:14:38;1.20;;;1.20;;
5742;SDS011;2896;53.500;10.020;2023-10-31T12:17:05;1.53;;;1.43;;
5742;SDS011;2896;53.500;10.020;2023-10-31T12:19:36;1.40;;;1.30;;
5742;SDS011;2896;53.500;10.020;2023-10-31T12:22:11;3.17;;;1.40;;
5742;SDS011;2896;53.500;10.020;2023-10-31T12:24:38;1.63;;;1.53;;
5742;SDS011;2896;53.500;10.020;2023-10-31T12:27:05;1.30;;;1.30;;
5742;SDS011;2896;53.500;10.020;2023-10-31T12:29:32;1.40;;;1.30;;
5742;SDS011;2896;53.500;10.020;2023-10-31T12:31:58;2.70;;;1.37;;
5742;SDS011;2896;53.500;10.020;2023-10-31T12:34:25;1.10;;;1.10;;
5742;SDS011;2896;53.500;10.020;2023-10-31T12:36:53;2.97;;;1.43;;
5742;SDS011;2896;53.500;10.020;2023-10-31T12:39:22;1.10;;;1.10;;
5742;SDS011;2896;53.500;10.020;2023-10-31T12:41:51;1.67;;;1.57;;
5742;SDS011;2896;53.500;10.020;2023-10-31T12:44:20;1.60;;;1.50;;
5742;SDS011;2896;53.500;10.020;2023-10-31T12:46:50;1.20;;;0.93;;
5742;SDS011;2896;53.500;10.020;2023-10-31T12:49:17;1.70;;;1.07;;
5742;SDS011;2896;53.500;10.020;2023-10-31T12:51:59;1.33;;;1.00;;
5742;SDS011;2896;53.500;10.020;2023-10-31T12:54:33;1.53;;;1.17;;
5742;SDS011;2896;53.500;10.020;2023-10-31T12:57:00;1.10;;;1.00;;
5742;SDS011;2896;53.500;10.020;2023-10-31T12:59:29;3.13;;;1.10;;
5742;SDS011;2896;53.500;10.020;2023-10-31T13:01:56;1.13;;;1.00;;
5742;SDS011;2896;53.500;10.020;2023-10-31T13:04:26;1.10;;;1.10;;
5742;SDS011;2896;53.500;10.020;2023-10-31T13:06:56;1.77;;;0.90;;
5742;SDS011;2896;53.500;10.020;2023-10-31T13:09:29;1.90;;;1.10;;
5742;SDS011;2896;53.500;10.020;2023-10-31T13:11:57;1.30;;;1.20;;
5742;SDS011;2896;53.500;10.020;2023-10-31T13:14:24;10.73;;;0.90;;
5742;SDS011;2896;53.500;10.020;2023-10-31T13:16:51;3.83;;;1.00;;
5742;SDS011;2896;53.500;10.020;2023-10-31T13:19:18;1.50;;;1.40;;
5742;SDS011;2896;53.500;10.020;2023-10-31T13:21:44;3.33;;;1.20;;
5742;SDS011;2896;53.500;10.020;2023-10-31T13:24:12;1.33;;;1.23;;
5742;SDS011;2896;53.500;10.020;2023-10-31T13:26:39;1.57;;;1.03;;
5742;SDS011;2896;53.500;10.020;2023-10-31T13:29:05;4.00;;;1.10;;
5742;SDS011;2896;53.500;10.020;2023-10-31T13:31:32;1.03;;;0.90;;
5742;SDS011;2896;53.500;10.020;2023-10-31T13:33:59;1.03;;;0.93;;
5742;SDS011;2896;53.500;10.020;2023-10-31T13:36:26;1.57;;;1.23;;
5742;SDS011;2896;53.500;10.020;2023-10-31T13:38:52;3.77;;;1.20;;
5742;SDS011;2896;53.500;10.020;2023-10-31T13:41:21;1.40;;;1.30;;
5742;SDS011;2896;53.500;10.020;2023-10-31T13:43:47;6.30;;;1.27;;
5742;SDS011;2896;53.500;10.020;2023-10-31T13:46:14;1.27;;;1.17;;
5742;SDS011;2896;53.500;10.020;2023-10-31T13:48:41;1.07;;;1.07;;
5742;SDS011;2896;53.500;10.020;2023-10-31T13:51:07;8.60;;;3.30;;
5742;SDS011;2896;53.500;10.020;2023-10-31T13:53:33;3.67;;;3.43;;
5742;SDS011;2896;53.500;10.020;2023-10-31T13:56:00;3.00;;;2.80;;
5742;SDS011;2896;53.500;10.020;2023-10-31T13:58:28;2.47;;;2.37;;
5742;SDS011;2896;53.500;10.020;2023-10-31T14:00:54;2.20;;;2.00;;
5742;SDS011;2896;53.500;10.020;2023-10-31T14:03:21;2.27;;;2.07;;
5742;SDS011;2896;53.500;10.020;2023-10-31T14:05:48;4.53;;;2.50;;
5742;SDS011;2896;53.500;10.020;2023-10-31T14:08:14;2.27;;;1.97;;
5742;SDS011;2896;53.500;10.020;2023-10-31T14:10:41;2.03;;;1.70;;
5742;SDS011;2896;53.500;10.020;2023-10-31T14:13:10;1.50;;;1.50;;
5742;SDS011;2896;53.500;10.020;2023-10-31T14:15:38;8.40;;;1.30;;
5742;SDS011;2896;53.500;10.020;2023-10-31T14:18:05;1.67;;;1.40;;
5742;SDS011;2896;53.500;10.020;2023-10-31T14:20:32;2.60;;;1.47;;
5742;SDS011;2896;53.500;10.020;2023-10-31T14:22:59;2.30;;;1.30;;
5742;SDS011;2896;53.500;10.020;2023-10-31T14:25:26;1.60;;;1.33;;
5742;SDS011;2896;53.500;10.020;2023-10-31T14:27:53;2.20;;;1.53;;
5742;SDS011;2896;53.500;10.020;2023-10-31T14:30:20;3.37;;;1.53;;
5742;SDS011;2896;53.500;10.020;2023-10-31T14:32:48;1.70;;;1.60;;
5742;SDS011;2896;53.500;10.020;2023-10-31T14:35:14;2.90;;;1.40;;
5742;SDS011;2896;53.500;10.020;2023-10-31T14:37:41;1.77;;;1.67;;
5742;SDS011;2896;53.500;10.020;2023-10-31T14:40:08;1.93;;;1.20;;
5742;SDS011;2896;53.500;10.020;2023-10-31T14:42:35;1.50;;;1.50;;
5742;SDS011;2896;53.500;10.020;2023-10-31T14:45:02;1.23;;;1.10;;
5742;SDS011;2896;53.500;10.020;2023-10-31T14:47:29;1.00;;;1.00;;
5742;SDS011;2896;53.500;10.020;2023-10-31T14:49:57;0.90;;;0.90;;
5742;SDS011;2896;53.500;10.020;2023-10-31T14:52:24;0.97;;;0.97;;
5742;SDS011;2896;53.500;10.020;2023-10-31T14:54:51;1.37;;;1.37;;
5742;SDS011;2896;53.500;10.020;2023-10-31T14:57:17;3.80;;;2.20;;
5742;SDS011;2896;53.500;10.020;2023-10-31T14:59:45;6.20;;;5.03;;
5742;SDS011;2896;53.500;10.020;2023-10-31T15:02:11;3.70;;;3.10;;